sensor_id;sensor_type;location;lat;lon;timestamp;temperature;humidity
8313;DHT22;4194;43.408;24.626;2023-07-29T00:01:24;19.00;97.60
8313;DHT22;4194;43.408;24.626;2023-07-29T00:03:49;19.00;98.00
8313;DHT22;4194;43.408;24.626;2023-07-29T00:06:15;19.00;97.20
8313;DHT22;4194;43.408;24.626;2023-07-29T00:08:40;18.80;97.30
8313;DHT22;4194;43.408;24.626;2023-07-29T00:11:06;18.80;97.60
8313;DHT22;4194;43.408;24.626;2023-07-29T00:13:32;18.90;97.60
8313;DHT22;4194;43.408;24.626;2023-07-29T00:15:57;18.80;97.20
8313;DHT22;4194;43.408;24.626;2023-07-29T00:18:23;18.90;97.20
8313;DHT22;4194;43.408;24.626;2023-07-29T00:20:49;18.80;97.30
8313;DHT22;4194;43.408;24.626;2023-07-29T00:23:17;18.70;97.40
8313;DHT22;4194;43.408;24.626;2023-07-29T00:25:44;18.90;97.60
8313;DHT22;4194;43.408;24.626;2023-07-29T00:28:11;18.70;97.40
8313;DHT22;4194;43.408;24.626;2023-07-29T00:30:36;18.70;97.90
8313;DHT22;4194;43.408;24.626;2023-07-29T00:33:02;18.80;98.50
8313;DHT22;4194;43.408;24.626;2023-07-29T00:35:28;18.80;98.40
8313;DHT22;4194;43.408;24.626;2023-07-29T00:37:54;18.70;98.20
8313;DHT22;4194;43.408;24.626;2023-07-29T00:40:20;18.60;98.50
8313;DHT22;4194;43.408;24.626;2023-07-29T00:42:46;18.50;99.20
8313;DHT22;4194;43.408;24.626;2023-07-29T00:45:13;18.40;99.30
8313;DHT22;4194;43.408;24.626;2023-07-29T00:47:39;18.40;99.90
8313;DHT22;4194;43.408;24.626;2023-07-29T00:50:06;18.30;99.90
8313;DHT22;4194;43.408;24.626;2023-07-29T00:52:32;18.20;99.90
8313;DHT22;4194;43.408;24.626;2023-07-29T00:54:58;18.50;99.90
8313;DHT22;4194;43.408;24.626;2023-07-29T00:57:24;17.90;99.90
8313;DHT22;4194;43.408;24.626;2023-07-29T00:59:51;18.40;99.90
8313;DHT22;4194;43.408;24.626;2023-07-29T01:02:17;18.10;99.90
8313;DHT22;4194;43.408;24.626;2023-07-29T01:04:43;18.10;99.90
8313;DHT22;4194;43.408;24.626;2023-07-29T01:07:23;18.10;99.90
8313;DHT22;4194;43.408;24.626;2023-07-29T01:09:56;18.00;99.90
8313;DHT22;4194;43.408;24.626;2023-07-29T01:18:05;17.90;99.90
8313;DHT22;4194;43.408;24.626;2023-07-29T01:20:33;18.10;99.90
8313;DHT22;4194;43.408;24.626;2023-07-29T01:23:00;18.10;99.90
8313;DHT22;4194;43.408;24.626;2023-07-29T01:25:26;17.80;99.90
8313;DHT22;4194;43.408;24.626;2023-07-29T01:27:52;17.80;99.90
8313;DHT22;4194;43.408;24.626;2023-07-29T01:30:19;18.00;99.90
8313;DHT22;4194;43.408;24.626;2023-07-29T01:32:55;17.80;99.90
8313;DHT22;4194;43.408;24.626;2023-07-29T01:36:03;17.60;99.90
8313;DHT22;4194;43.408;24.626;2023-07-29T01:38:36;17.60;99.90
8313;DHT22;4194;43.408;24.626;2023-07-29T01:41:05;17.70;99.90
8313;DHT22;4194;43.408;24.626;2023-07-29T01:43:33;17.70;99.90
8313;DHT22;4194;43.408;24.626;2023-07-29T01:46:00;17.70;99.90
8313;DHT22;4194;43.408;24.626;2023-07-29T01:48:25;17.60;99.90
8313;DHT22;4194;43.408;24.626;2023-07-29T01:50:52;17.60;99.90
8313;DHT22;4194;43.408;24.626;2023-07-29T01:53:18;17.70;99.90
8313;DHT22;4194;43.408;24.626;2023-07-29T01:55:44;17.70;99.90
8313;DHT22;4194;43.408;24.626;2023-07-29T01:58:10;17.50;99.90
8313;DHT22;4194;43.408;24.626;2023-07-29T02:00:36;17.60;99.90
8313;DHT22;4194;43.408;24.626;2023-07-29T02:03:02;17.60;99.90
8313;DHT22;4194;43.408;24.626;2023-07-29T02:05:28;17.40;99.90
8313;DHT22;4194;43.408;24.626;2023-07-29T02:07:53;17.50;99.90
8313;DHT22;4194;43.408;24.626;2023-07-29T02:10:19;17.50;99.90
8313;DHT22;4194;43.408;24.626;2023-07-29T02:12:45;17.50;99.90
8313;DHT22;4194;43.408;24.626;2023-07-29T02:15:10;17.40;99.90
8313;DHT22;4194;43.408;24.626;2023-07-29T02:17:36;17.40;99.90
8313;DHT22;4194;43.408;24.626;2023-07-29T02:20:03;17.40;99.90
8313;DHT22;4194;43.408;24.626;2023-07-29T02:22:29;17.40;99.90
8313;DHT22;4194;43.408;24.626;2023-07-29T02:24:55;17.30;99.90
8313;DHT22;4194;43.408;24.626;2023-07-29T02:27:20;17.30;99.90
8313;DHT22;4194;43.408;24.626;2023-07-29T02:29:46;17.30;99.90
8313;DHT22;4194;43.408;24.626;2023-07-29T02:32:12;17.10;99.90
8313;DHT22;4194;43.408;24.626;2023-07-29T02:34:37;17.10;99.90
8313;DHT22;4194;43.408;24.626;2023-07-29T02:37:03;17.00;99.90
8313;DHT22;4194;43.408;24.626;2023-07-29T02:39:29;17.00;99.90
8313;DHT22;4194;43.408;24.626;2023-07-29T02:41:55;17.10;99.90
8313;DHT22;4194;43.408;24.626;2023-07-29T02:44:21;17.00;99.90
8313;DHT22;4194;43.408;24.626;2023-07-29T02:46:47;17.00;99.90
8313;DHT22;4194;43.408;24.626;2023-07-29T02:49:12;17.00;99.90
8313;DHT22;4194;43.408;24.626;2023-07-29T02:51:38;17.20;99.90
8313;DHT22;4194;43.408;24.626;2023-07-29T02:54:04;17.30;99.90
8313;DHT22;4194;43.408;24.626;2023-07-29T02:56:29;17.00;99.90
8313;DHT22;4194;43.408;24.626;2023-07-29T02:58:56;17.20;99.90
8313;DHT22;4194;43.408;24.626;2023-07-29T03:01:22;17.10;99.90
8313;DHT22;4194;43.408;24.626;2023-07-29T03:03:48;17.20;99.90
8313;DHT22;4194;43.408;24.626;2023-07-29T03:06:14;17.20;99.90
8313;DHT22;4194;43.408;24.626;2023-07-29T03:08:41;17.40;99.90
8313;DHT22;4194;43.408;24.626;2023-07-29T03:11:12;17.10;99.90
8313;DHT22;4194;43.408;24.626;2023-07-29T03:13:38;17.10;99.90
8313;DHT22;4194;43.408;24.626;2023-07-29T03:16:07;17.10;99.90
8313;DHT22;4194;43.408;24.626;2023-07-29T03:18:33;17.10;99.90
8313;DHT22;4194;43.408;24.626;2023-07-29T03:20:59;17.00;99.90
8313;DHT22;4194;43.408;24.626;2023-07-29T03:23:25;17.00;99.90
8313;DHT22;4194;43.408;24.626;2023-07-29T03:25:51;16.80;99.90
8313;DHT22;4194;43.408;24.626;2023-07-29T03:28:18;16.90;99.90
8313;DHT22;4194;43.408;24.626;2023-07-29T03:30:44;16.80;99.90
8313;DHT22;4194;43.408;24.626;2023-07-29T03:33:09;16.80;99.90
8313;DHT22;4194;43.408;24.626;2023-07-29T03:35:35;16.80;99.90
8313;DHT22;4194;43.408;24.626;2023-07-29T03:38:01;16.80;99.90
8313;DHT22;4194;43.408;24.626;2023-07-29T03:40:26;16.50;99.90
8313;DHT22;4194;43.408;24.626;2023-07-29T03:42:52;17.00;99.90
8313;DHT22;4194;43.408;24.626;2023-07-29T03:45:18;16.70;99.90
8313;DHT22;4194;43.408;24.626;2023-07-29T03:47:44;16.80;99.90
8313;DHT22;4194;43.408;24.626;2023-07-29T03:50:09;16.70;99.90
8313;DHT22;4194;43.408;24.626;2023-07-29T03:52:35;16.90;99.90
8313;DHT22;4194;43.408;24.626;2023-07-29T03:55:01;17.10;99.90
8313;DHT22;4194;43.408;24.626;2023-07-29T03:57:27;16.90;99.90
8313;DHT22;4194;43.408;24.626;2023-07-29T03:59:54;16.90;99.90
8313;DHT22;4194;43.408;24.626;2023-07-29T04:02:20;17.00;99.90
8313;DHT22;4194;43.408;24.626;2023-07-29T04:04:45;17.10;99.90
8313;DHT22;4194;43.408;24.626;2023-07-29T04:07:14;17.20;99.90
8313;DHT22;4194;43.408;24.626;2023-07-29T04:09:40;17.20;99.90
8313;DHT22;4194;43.408;24.626;2023-07-29T04:12:06;17.40;99.90
8313;DHT22;4194;43.408;24.626;2023-07-29T04:14:31;17.40;99.90
8313;DHT22;4194;43.408;24.626;2023-07-29T04:16:57;17.70;99.90
8313;DHT22;4194;43.408;24.626;2023-07-29T04:19:23;17.70;99.90
8313;DHT22;4194;43.408;24.626;2023-07-29T04:21:48;17.80;99.90
8313;DHT22;4194;43.408;24.626;2023-07-29T04:24:16;17.60;99.90
8313;DHT22;4194;43.408;24.626;2023-07-29T04:26:42;18.00;99.90
8313;DHT22;4194;43.408;24.626;2023-07-29T04:29:07;18.30;99.90
8313;DHT22;4194;43.408;24.626;2023-07-29T04:31:33;18.50;99.90
8313;DHT22;4194;43.408;24.626;2023-07-29T04:33:58;18.40;99.90
8313;DHT22;4194;43.408;24.626;2023-07-29T04:36:24;18.60;99.90
8313;DHT22;4194;43.408;24.626;2023-07-29T04:38:50;18.60;99.90
8313;DHT22;4194;43.408;24.626;2023-07-29T04:41:15;18.90;99.90
8313;DHT22;4194;43.408;24.626;2023-07-29T04:43:41;19.20;99.90
8313;DHT22;4194;43.408;24.626;2023-07-29T04:46:07;19.40;99.90
8313;DHT22;4194;43.408;24.626;2023-07-29T04:48:35;19.40;99.90
8313;DHT22;4194;43.408;24.626;2023-07-29T04:51:01;19.60;99.90
8313;DHT22;4194;43.408;24.626;2023-07-29T04:53:27;19.80;97.90
8313;DHT22;4194;43.408;24.626;2023-07-29T04:55:52;20.00;96.30
8313;DHT22;4194;43.408;24.626;2023-07-29T04:58:18;20.10;95.20
8313;DHT22;4194;43.408;24.626;2023-07-29T05:00:45;21.60;92.80
8313;DHT22;4194;43.408;24.626;2023-07-29T05:03:11;20.60;92.60
8313;DHT22;4194;43.408;24.626;2023-07-29T05:05:37;20.70;91.50
8313;DHT22;4194;43.408;24.626;2023-07-29T05:08:03;20.90;91.20
8313;DHT22;4194;43.408;24.626;2023-07-29T05:10:28;21.10;91.10
8313;DHT22;4194;43.408;24.626;2023-07-29T05:12:54;21.30;90.60
8313;DHT22;4194;43.408;24.626;2023-07-29T05:15:20;21.30;90.30
8313;DHT22;4194;43.408;24.626;2023-07-29T05:17:45;21.50;89.10
8313;DHT22;4194;43.408;24.626;2023-07-29T05:20:11;21.60;88.50
8313;DHT22;4194;43.408;24.626;2023-07-29T05:22:37;21.80;88.80
8313;DHT22;4194;43.408;24.626;2023-07-29T05:25:03;21.90;88.60
8313;DHT22;4194;43.408;24.626;2023-07-29T05:27:29;22.10;89.00
8313;DHT22;4194;43.408;24.626;2023-07-29T05:29:54;22.40;87.50
8313;DHT22;4194;43.408;24.626;2023-07-29T05:32:20;22.50;86.70
8313;DHT22;4194;43.408;24.626;2023-07-29T05:34:45;22.50;86.50
8313;DHT22;4194;43.408;24.626;2023-07-29T05:37:11;22.70;86.60
8313;DHT22;4194;43.408;24.626;2023-07-29T05:39:37;22.80;86.70
8313;DHT22;4194;43.408;24.626;2023-07-29T05:42:03;23.00;85.90
8313;DHT22;4194;43.408;24.626;2023-07-29T05:44:29;22.90;84.90
8313;DHT22;4194;43.408;24.626;2023-07-29T05:46:57;23.20;83.40
8313;DHT22;4194;43.408;24.626;2023-07-29T05:49:23;23.50;83.00
8313;DHT22;4194;43.408;24.626;2023-07-29T05:51:49;23.40;82.20
8313;DHT22;4194;43.408;24.626;2023-07-29T05:54:17;23.50;82.00
8313;DHT22;4194;43.408;24.626;2023-07-29T05:56:43;23.40;81.60
8313;DHT22;4194;43.408;24.626;2023-07-29T05:59:08;23.70;82.10
8313;DHT22;4194;43.408;24.626;2023-07-29T06:01:34;23.90;82.50
8313;DHT22;4194;43.408;24.626;2023-07-29T06:04:00;24.00;83.00
8313;DHT22;4194;43.408;24.626;2023-07-29T06:06:26;24.00;80.20
8313;DHT22;4194;43.408;24.626;2023-07-29T06:08:52;24.20;80.30
8313;DHT22;4194;43.408;24.626;2023-07-29T06:11:18;24.30;81.10
8313;DHT22;4194;43.408;24.626;2023-07-29T06:13:43;24.60;80.10
8313;DHT22;4194;43.408;24.626;2023-07-29T06:16:09;24.70;79.70
8313;DHT22;4194;43.408;24.626;2023-07-29T06:18:35;24.70;79.40
8313;DHT22;4194;43.408;24.626;2023-07-29T06:21:00;24.80;80.00
8313;DHT22;4194;43.408;24.626;2023-07-29T06:23:26;24.90;80.00
8313;DHT22;4194;43.408;24.626;2023-07-29T06:25:52;25.10;79.40
8313;DHT22;4194;43.408;24.626;2023-07-29T06:28:17;25.30;78.90
8313;DHT22;4194;43.408;24.626;2023-07-29T06:30:43;25.30;78.60
8313;DHT22;4194;43.408;24.626;2023-07-29T06:33:09;25.30;76.90
8313;DHT22;4194;43.408;24.626;2023-07-29T06:35:35;25.40;77.10
8313;DHT22;4194;43.408;24.626;2023-07-29T06:38:00;25.50;76.50
8313;DHT22;4194;43.408;24.626;2023-07-29T06:40:26;25.60;76.80
8313;DHT22;4194;43.408;24.626;2023-07-29T06:42:51;25.70;76.50
8313;DHT22;4194;43.408;24.626;2023-07-29T06:45:17;25.70;76.10
8313;DHT22;4194;43.408;24.626;2023-07-29T06:47:43;25.80;75.90
8313;DHT22;4194;43.408;24.626;2023-07-29T06:50:09;25.70;74.90
8313;DHT22;4194;43.408;24.626;2023-07-29T06:52:34;25.90;74.60
8313;DHT22;4194;43.408;24.626;2023-07-29T06:55:02;25.90;73.20
8313;DHT22;4194;43.408;24.626;2023-07-29T06:57:28;26.00;72.70
8313;DHT22;4194;43.408;24.626;2023-07-29T06:59:53;26.10;73.30
8313;DHT22;4194;43.408;24.626;2023-07-29T07:02:19;26.20;72.00
8313;DHT22;4194;43.408;24.626;2023-07-29T07:04:45;26.30;70.30
8313;DHT22;4194;43.408;24.626;2023-07-29T07:07:10;26.40;69.90
8313;DHT22;4194;43.408;24.626;2023-07-29T07:09:36;26.60;69.50
8313;DHT22;4194;43.408;24.626;2023-07-29T07:12:02;26.70;69.50
8313;DHT22;4194;43.408;24.626;2023-07-29T07:14:27;26.80;68.80
8313;DHT22;4194;43.408;24.626;2023-07-29T07:16:53;26.80;67.30
8313;DHT22;4194;43.408;24.626;2023-07-29T07:19:19;27.10;67.30
8313;DHT22;4194;43.408;24.626;2023-07-29T07:21:44;27.30;67.00
8313;DHT22;4194;43.408;24.626;2023-07-29T07:24:10;27.30;65.80
8313;DHT22;4194;43.408;24.626;2023-07-29T07:26:36;27.40;66.10
8313;DHT22;4194;43.408;24.626;2023-07-29T07:29:01;27.60;65.40
8313;DHT22;4194;43.408;24.626;2023-07-29T07:31:27;27.80;65.60
8313;DHT22;4194;43.408;24.626;2023-07-29T07:33:53;27.60;65.80
8313;DHT22;4194;43.408;24.626;2023-07-29T07:36:18;27.80;64.20
8313;DHT22;4194;43.408;24.626;2023-07-29T07:38:44;27.80;63.30
8313;DHT22;4194;43.408;24.626;2023-07-29T07:41:10;27.70;62.10
8313;DHT22;4194;43.408;24.626;2023-07-29T07:43:35;27.80;63.10
8313;DHT22;4194;43.408;24.626;2023-07-29T07:46:02;27.80;61.40
8313;DHT22;4194;43.408;24.626;2023-07-29T07:48:28;28.00;60.00
8313;DHT22;4194;43.408;24.626;2023-07-29T07:50:54;28.10;61.00
8313;DHT22;4194;43.408;24.626;2023-07-29T07:53:19;28.30;59.80
8313;DHT22;4194;43.408;24.626;2023-07-29T07:55:45;28.30;59.60
8313;DHT22;4194;43.408;24.626;2023-07-29T07:58:11;28.50;59.50
8313;DHT22;4194;43.408;24.626;2023-07-29T08:00:37;28.60;57.50
8313;DHT22;4194;43.408;24.626;2023-07-29T08:03:03;28.80;54.20
8313;DHT22;4194;43.408;24.626;2023-07-29T08:05:29;28.90;54.30
8313;DHT22;4194;43.408;24.626;2023-07-29T08:07:55;29.00;53.90
8313;DHT22;4194;43.408;24.626;2023-07-29T08:10:21;29.20;53.70
8313;DHT22;4194;43.408;24.626;2023-07-29T08:12:47;29.10;53.50
8313;DHT22;4194;43.408;24.626;2023-07-29T08:15:12;29.10;53.90
8313;DHT22;4194;43.408;24.626;2023-07-29T08:17:38;29.00;52.70
8313;DHT22;4194;43.408;24.626;2023-07-29T08:20:04;29.40;53.30
8313;DHT22;4194;43.408;24.626;2023-07-29T08:22:30;29.60;52.80
8313;DHT22;4194;43.408;24.626;2023-07-29T08:24:55;29.70;52.10
8313;DHT22;4194;43.408;24.626;2023-07-29T08:27:21;29.80;52.30
8313;DHT22;4194;43.408;24.626;2023-07-29T08:29:47;30.10;51.20
8313;DHT22;4194;43.408;24.626;2023-07-29T08:32:12;30.00;51.80
8313;DHT22;4194;43.408;24.626;2023-07-29T08:34:38;29.90;52.30
8313;DHT22;4194;43.408;24.626;2023-07-29T08:37:04;30.00;53.10
8313;DHT22;4194;43.408;24.626;2023-07-29T08:39:29;30.10;51.70
8313;DHT22;4194;43.408;24.626;2023-07-29T08:42:02;29.70;51.70
8313;DHT22;4194;43.408;24.626;2023-07-29T08:44:36;30.30;51.60
8313;DHT22;4194;43.408;24.626;2023-07-29T08:47:04;30.40;51.80
8313;DHT22;4194;43.408;24.626;2023-07-29T08:49:31;30.50;52.00
8313;DHT22;4194;43.408;24.626;2023-07-29T08:51:58;30.70;52.90
8313;DHT22;4194;43.408;24.626;2023-07-29T08:54:24;31.10;50.90
8313;DHT22;4194;43.408;24.626;2023-07-29T08:56:50;31.30;50.70
8313;DHT22;4194;43.408;24.626;2023-07-29T08:59:16;31.40;49.50
8313;DHT22;4194;43.408;24.626;2023-07-29T09:01:45;31.40;49.40
8313;DHT22;4194;43.408;24.626;2023-07-29T09:04:11;31.70;50.30
8313;DHT22;4194;43.408;24.626;2023-07-29T09:06:39;31.70;49.00
8313;DHT22;4194;43.408;24.626;2023-07-29T09:09:06;31.40;49.10
8313;DHT22;4194;43.408;24.626;2023-07-29T09:11:33;31.40;48.90
8313;DHT22;4194;43.408;24.626;2023-07-29T09:13:59;31.40;49.30
8313;DHT22;4194;43.408;24.626;2023-07-29T09:16:26;31.60;49.70
8313;DHT22;4194;43.408;24.626;2023-07-29T09:18:52;31.30;49.00
8313;DHT22;4194;43.408;24.626;2023-07-29T09:21:23;31.40;49.40
8313;DHT22;4194;43.408;24.626;2023-07-29T09:23:50;31.50;49.60
8313;DHT22;4194;43.408;24.626;2023-07-29T09:26:22;32.00;49.70
8313;DHT22;4194;43.408;24.626;2023-07-29T09:28:55;32.00;48.00
8313;DHT22;4194;43.408;24.626;2023-07-29T09:31:26;32.00;49.00
8313;DHT22;4194;43.408;24.626;2023-07-29T09:34:03;32.00;48.90
8313;DHT22;4194;43.408;24.626;2023-07-29T09:36:31;32.00;48.20
8313;DHT22;4194;43.408;24.626;2023-07-29T09:38:58;32.10;48.80
8313;DHT22;4194;43.408;24.626;2023-07-29T09:41:25;32.50;48.10
8313;DHT22;4194;43.408;24.626;2023-07-29T09:43:56;32.50;48.50
8313;DHT22;4194;43.408;24.626;2023-07-29T09:46:24;32.30;48.30
8313;DHT22;4194;43.408;24.626;2023-07-29T09:48:54;32.20;48.30
8313;DHT22;4194;43.408;24.626;2023-07-29T09:51:22;32.20;48.10
8313;DHT22;4194;43.408;24.626;2023-07-29T09:53:49;32.10;48.00
8313;DHT22;4194;43.408;24.626;2023-07-29T09:56:16;32.10;47.70
8313;DHT22;4194;43.408;24.626;2023-07-29T09:58:45;32.30;47.10
8313;DHT22;4194;43.408;24.626;2023-07-29T10:01:12;32.50;48.20
8313;DHT22;4194;43.408;24.626;2023-07-29T10:03:37;32.70;47.30
8313;DHT22;4194;43.408;24.626;2023-07-29T10:06:05;32.90;47.60
8313;DHT22;4194;43.408;24.626;2023-07-29T10:08:31;33.00;47.50
8313;DHT22;4194;43.408;24.626;2023-07-29T10:11:10;33.20;47.60
8313;DHT22;4194;43.408;24.626;2023-07-29T10:13:37;33.40;47.60
8313;DHT22;4194;43.408;24.626;2023-07-29T10:16:04;33.40;47.40
8313;DHT22;4194;43.408;24.626;2023-07-29T10:18:31;33.30;46.90
8313;DHT22;4194;43.408;24.626;2023-07-29T10:20:58;33.30;47.00
8313;DHT22;4194;43.408;24.626;2023-07-29T10:23:26;33.20;46.30
8313;DHT22;4194;43.408;24.626;2023-07-29T10:26:03;33.30;46.90
8313;DHT22;4194;43.408;24.626;2023-07-29T10:28:31;33.50;46.00
8313;DHT22;4194;43.408;24.626;2023-07-29T10:30:58;33.60;45.50
8313;DHT22;4194;43.408;24.626;2023-07-29T10:33:24;33.80;45.60
8313;DHT22;4194;43.408;24.626;2023-07-29T10:35:50;33.50;46.60
8313;DHT22;4194;43.408;24.626;2023-07-29T10:38:17;34.00;46.00
8313;DHT22;4194;43.408;24.626;2023-07-29T10:40:51;34.40;46.50
8313;DHT22;4194;43.408;24.626;2023-07-29T10:43:24;35.00;45.40
8313;DHT22;4194;43.408;24.626;2023-07-29T10:45:50;35.60;45.10
8313;DHT22;4194;43.408;24.626;2023-07-29T10:54:04;36.90;42.20
8313;DHT22;4194;43.408;24.626;2023-07-29T10:56:36;37.00;41.50
8313;DHT22;4194;43.408;24.626;2023-07-29T10:59:31;37.10;40.90
8313;DHT22;4194;43.408;24.626;2023-07-29T11:01:58;37.50;40.60
8313;DHT22;4194;43.408;24.626;2023-07-29T11:04:26;37.50;39.60
8313;DHT22;4194;43.408;24.626;2023-07-29T11:15:12;38.40;39.00
8313;DHT22;4194;43.408;24.626;2023-07-29T11:20:10;39.00;39.10
8313;DHT22;4194;43.408;24.626;2023-07-29T11:22:37;39.10;37.90
8313;DHT22;4194;43.408;24.626;2023-07-29T11:25:04;39.40;38.40
8313;DHT22;4194;43.408;24.626;2023-07-29T11:27:30;39.70;36.10
8313;DHT22;4194;43.408;24.626;2023-07-29T11:29:58;39.80;35.90
8313;DHT22;4194;43.408;24.626;2023-07-29T11:32:25;39.80;36.20
8313;DHT22;4194;43.408;24.626;2023-07-29T11:34:50;40.40;38.20
8313;DHT22;4194;43.408;24.626;2023-07-29T11:37:16;40.60;36.00
8313;DHT22;4194;43.408;24.626;2023-07-29T11:39:43;40.40;34.90
8313;DHT22;4194;43.408;24.626;2023-07-29T11:42:13;40.10;35.30
8313;DHT22;4194;43.408;24.626;2023-07-29T11:44:39;39.80;35.60
8313;DHT22;4194;43.408;24.626;2023-07-29T11:47:09;39.70;35.90
8313;DHT22;4194;43.408;24.626;2023-07-29T11:49:35;40.00;36.10
8313;DHT22;4194;43.408;24.626;2023-07-29T11:52:02;40.20;35.60
8313;DHT22;4194;43.408;24.626;2023-07-29T11:54:29;40.60;35.10
8313;DHT22;4194;43.408;24.626;2023-07-29T11:56:55;40.50;34.40
8313;DHT22;4194;43.408;24.626;2023-07-29T11:59:21;40.30;34.60
8313;DHT22;4194;43.408;24.626;2023-07-29T12:01:47;40.20;34.60
8313;DHT22;4194;43.408;24.626;2023-07-29T12:04:13;40.00;36.20
8313;DHT22;4194;43.408;24.626;2023-07-29T12:06:39;40.00;36.30
8313;DHT22;4194;43.408;24.626;2023-07-29T12:09:05;40.50;35.30
8313;DHT22;4194;43.408;24.626;2023-07-29T12:11:32;40.90;35.90
8313;DHT22;4194;43.408;24.626;2023-07-29T12:14:00;41.30;34.20
8313;DHT22;4194;43.408;24.626;2023-07-29T12:16:25;41.50;33.20
8313;DHT22;4194;43.408;24.626;2023-07-29T12:18:51;41.40;33.70
8313;DHT22;4194;43.408;24.626;2023-07-29T12:21:18;41.40;33.50
8313;DHT22;4194;43.408;24.626;2023-07-29T12:23:44;41.60;33.50
8313;DHT22;4194;43.408;24.626;2023-07-29T12:26:10;41.70;33.80
8313;DHT22;4194;43.408;24.626;2023-07-29T12:28:36;41.50;33.90
8313;DHT22;4194;43.408;24.626;2023-07-29T12:31:01;42.00;33.90
8313;DHT22;4194;43.408;24.626;2023-07-29T12:33:37;43.10;33.30
8313;DHT22;4194;43.408;24.626;2023-07-29T12:36:07;43.10;31.50
8313;DHT22;4194;43.408;24.626;2023-07-29T12:38:33;43.90;32.30
8313;DHT22;4194;43.408;24.626;2023-07-29T12:40:59;44.40;32.50
8313;DHT22;4194;43.408;24.626;2023-07-29T12:43:25;45.20;32.50
8313;DHT22;4194;43.408;24.626;2023-07-29T12:45:51;45.60;31.70
8313;DHT22;4194;43.408;24.626;2023-07-29T12:48:17;45.50;30.00
8313;DHT22;4194;43.408;24.626;2023-07-29T12:50:43;46.40;30.80
8313;DHT22;4194;43.408;24.626;2023-07-29T12:53:09;47.30;29.60
8313;DHT22;4194;43.408;24.626;2023-07-29T12:55:38;47.70;28.60
8313;DHT22;4194;43.408;24.626;2023-07-29T12:58:04;47.90;29.00
8313;DHT22;4194;43.408;24.626;2023-07-29T13:00:30;46.70;29.60
8313;DHT22;4194;43.408;24.626;2023-07-29T13:02:56;45.60;29.80
8313;DHT22;4194;43.408;24.626;2023-07-29T13:05:21;44.70;31.00
8313;DHT22;4194;43.408;24.626;2023-07-29T13:07:47;43.90;29.80
8313;DHT22;4194;43.408;24.626;2023-07-29T13:10:13;43.30;30.80
8313;DHT22;4194;43.408;24.626;2023-07-29T13:12:40;42.40;31.60
8313;DHT22;4194;43.408;24.626;2023-07-29T13:15:06;41.80;31.20
8313;DHT22;4194;43.408;24.626;2023-07-29T13:17:33;40.70;31.10
8313;DHT22;4194;43.408;24.626;2023-07-29T13:19:59;39.70;32.20
8313;DHT22;4194;43.408;24.626;2023-07-29T13:22:25;39.10;34.30
8313;DHT22;4194;43.408;24.626;2023-07-29T13:24:50;38.50;33.90
8313;DHT22;4194;43.408;24.626;2023-07-29T13:27:16;38.50;35.10
8313;DHT22;4194;43.408;24.626;2023-07-29T13:29:42;38.40;34.10
8313;DHT22;4194;43.408;24.626;2023-07-29T13:32:09;38.20;33.50
8313;DHT22;4194;43.408;24.626;2023-07-29T13:34:35;37.90;35.40
8313;DHT22;4194;43.408;24.626;2023-07-29T13:37:01;37.90;35.70
8313;DHT22;4194;43.408;24.626;2023-07-29T13:39:27;37.80;35.80
8313;DHT22;4194;43.408;24.626;2023-07-29T13:41:53;38.90;36.30
8313;DHT22;4194;43.408;24.626;2023-07-29T13:44:19;39.90;36.30
8313;DHT22;4194;43.408;24.626;2023-07-29T13:46:45;41.20;34.50
8313;DHT22;4194;43.408;24.626;2023-07-29T13:49:11;40.80;34.00
8313;DHT22;4194;43.408;24.626;2023-07-29T13:51:37;40.20;34.80
8313;DHT22;4194;43.408;24.626;2023-07-29T13:54:03;39.80;35.10
8313;DHT22;4194;43.408;24.626;2023-07-29T13:56:28;39.40;36.10
8313;DHT22;4194;43.408;24.626;2023-07-29T13:58:54;38.40;37.40
8313;DHT22;4194;43.408;24.626;2023-07-29T14:01:21;37.90;38.60
8313;DHT22;4194;43.408;24.626;2023-07-29T14:03:47;37.10;38.40
8313;DHT22;4194;43.408;24.626;2023-07-29T14:06:12;36.50;38.00
8313;DHT22;4194;43.408;24.626;2023-07-29T14:08:38;36.30;38.80
8313;DHT22;4194;43.408;24.626;2023-07-29T14:11:06;36.00;39.20
8313;DHT22;4194;43.408;24.626;2023-07-29T14:13:32;35.60;39.40
8313;DHT22;4194;43.408;24.626;2023-07-29T14:15:59;35.20;40.30
8313;DHT22;4194;43.408;24.626;2023-07-29T14:18:25;35.20;41.30
8313;DHT22;4194;43.408;24.626;2023-07-29T14:20:50;35.10;41.80
8313;DHT22;4194;43.408;24.626;2023-07-29T14:23:16;34.90;41.20
8313;DHT22;4194;43.408;24.626;2023-07-29T14:25:42;34.90;43.80
8313;DHT22;4194;43.408;24.626;2023-07-29T14:28:08;34.80;44.60
8313;DHT22;4194;43.408;24.626;2023-07-29T14:30:34;34.60;41.30
8313;DHT22;4194;43.408;24.626;2023-07-29T14:33:00;34.40;42.90
8313;DHT22;4194;43.408;24.626;2023-07-29T14:35:26;34.50;43.70
8313;DHT22;4194;43.408;24.626;2023-07-29T14:37:52;34.70;45.10
8313;DHT22;4194;43.408;24.626;2023-07-29T14:40:17;35.20;41.70
8313;DHT22;4194;43.408;24.626;2023-07-29T14:42:43;35.90;40.50
8313;DHT22;4194;43.408;24.626;2023-07-29T14:45:09;36.50;40.00
8313;DHT22;4194;43.408;24.626;2023-07-29T14:47:35;37.00;40.00
8313;DHT22;4194;43.408;24.626;2023-07-29T14:50:01;37.10;40.30
8313;DHT22;4194;43.408;24.626;2023-07-29T14:52:26;38.10;40.10
8313;DHT22;4194;43.408;24.626;2023-07-29T14:54:52;40.20;38.50
8313;DHT22;4194;43.408;24.626;2023-07-29T14:57:18;39.90;38.70
8313;DHT22;4194;43.408;24.626;2023-07-29T14:59:43;39.40;39.50
8313;DHT22;4194;43.408;24.626;2023-07-29T15:02:09;39.00;40.40
8313;DHT22;4194;43.408;24.626;2023-07-29T15:04:34;38.40;40.90
8313;DHT22;4194;43.408;24.626;2023-07-29T15:07:01;38.00;41.10
8313;DHT22;4194;43.408;24.626;2023-07-29T15:09:27;38.10;40.30
8313;DHT22;4194;43.408;24.626;2023-07-29T15:11:53;39.20;40.70
8313;DHT22;4194;43.408;24.626;2023-07-29T15:14:19;41.50;39.10
8313;DHT22;4194;43.408;24.626;2023-07-29T15:16:44;43.20;37.00
8313;DHT22;4194;43.408;24.626;2023-07-29T15:19:10;45.00;36.10
8313;DHT22;4194;43.408;24.626;2023-07-29T15:21:35;46.50;32.90
8313;DHT22;4194;43.408;24.626;2023-07-29T15:24:01;47.90;31.90
8313;DHT22;4194;43.408;24.626;2023-07-29T15:26:27;49.50;30.80
8313;DHT22;4194;43.408;24.626;2023-07-29T15:28:53;50.50;29.70
8313;DHT22;4194;43.408;24.626;2023-07-29T15:31:19;50.60;29.20
8313;DHT22;4194;43.408;24.626;2023-07-29T15:33:44;50.50;28.90
8313;DHT22;4194;43.408;24.626;2023-07-29T15:36:10;51.10;28.30
8313;DHT22;4194;43.408;24.626;2023-07-29T15:38:36;50.50;29.40
8313;DHT22;4194;43.408;24.626;2023-07-29T15:41:02;49.20;29.80
8313;DHT22;4194;43.408;24.626;2023-07-29T15:43:29;49.10;29.40
8313;DHT22;4194;43.408;24.626;2023-07-29T15:45:55;49.90;29.30
8313;DHT22;4194;43.408;24.626;2023-07-29T15:48:20;50.00;29.70
8313;DHT22;4194;43.408;24.626;2023-07-29T15:50:47;50.20;28.30
8313;DHT22;4194;43.408;24.626;2023-07-29T15:53:13;50.90;28.90
8313;DHT22;4194;43.408;24.626;2023-07-29T15:55:38;51.10;28.40
8313;DHT22;4194;43.408;24.626;2023-07-29T15:58:04;51.30;28.70
8313;DHT22;4194;43.408;24.626;2023-07-29T16:00:31;51.30;28.50
8313;DHT22;4194;43.408;24.626;2023-07-29T16:02:56;51.20;28.00